createdAt,value
2023-05-10T01:09:34.276Z,100058.13
2023-05-10T01:15:56.840Z,100090.72
2023-05-10T01:18:28.473Z,100050.94
2023-05-10T01:21:19.920Z,100073.09
2023-05-10T01:24:00.399Z,100066.63
2023-05-10T01:30:25.830Z,100092.13
2023-05-10T01:33:11.800Z,100065.00
2023-05-10T01:35:49.856Z,100086.34
2023-05-10T01:38:37.508Z,100073.72
2023-05-10T01:41:33.051Z,100095.44
2023-05-10T01:50:31.392Z,100046.56
2023-05-10T01:53:00.619Z,100067.97
2023-05-10T01:59:00.100Z,100040.22
2023-05-10T02:04:56.631Z,100045.31
2023-05-10T02:17:49.022Z,100053.41
2023-05-10T02:20:18.298Z,100058.84
2023-05-10T02:22:56.197Z,100068.06
2023-05-10T02:25:47.192Z,100043.94
2023-05-10T02:28:20.451Z,100076.84
2023-05-10T02:30:52.776Z,100047.78
2023-05-10T02:33:30.393Z,100065.31
2023-05-10T02:36:03.869Z,100042.38
2023-05-10T02:38:32.845Z,100054.22
2023-05-10T02:47:58.728Z,100019.25
2023-05-10T02:50:37.158Z,100036.03
2023-05-10T02:53:15.952Z,100024.25
2023-05-10T02:55:57.318Z,100034.63
2023-05-10T02:58:29.566Z,100027.25
2023-05-10T03:08:31.493Z,100062.41
2023-05-10T03:11:17.197Z,100059.59
2023-05-10T03:13:58.857Z,100065.03
2023-05-10T03:19:59.646Z,100021.97
2023-05-10T03:22:39.224Z,100057.34
2023-05-10T03:28:40.021Z,100046.94
2023-05-10T03:34:32.624Z,100027.47
2023-05-10T03:37:00.742Z,100043.06
2023-05-10T03:40:28.424Z,100054.31
2023-05-10T04:38:45.520Z,100059.31
2023-05-10T04:41:17.863Z,100054.78
2023-05-10T04:43:50.562Z,100043.25
2023-05-10T04:46:30.662Z,100030.97
2023-05-10T04:49:16.483Z,100057.47
2023-05-10T04:58:41.919Z,100018.81
2023-05-10T05:01:14.029Z,100017.97
2023-05-10T05:03:42.138Z,100011.03
2023-05-10T05:06:09.983Z,100012.53
2023-05-10T05:08:37.533Z,100025.81
2023-05-10T05:11:07.205Z,100022.47
2023-05-10T05:13:34.568Z,100039.84
2023-05-10T05:16:03.983Z,100041.06
2023-05-10T05:18:31.756Z,100037.28
2023-05-10T05:20:59.309Z,100026.00
2023-05-10T05:23:27.028Z,100019.16
2023-05-10T05:25:54.952Z,100032.81
2023-05-10T05:28:22.271Z,100024.38
2023-05-10T05:30:52.904Z,100000.25
2023-05-10T05:33:20.322Z,100010.59
2023-05-10T05:35:52.110Z,100011.44
2023-05-10T05:38:22.521Z,100010.16
2023-05-10T05:40:49.847Z,100021.47
2023-05-10T05:43:17.194Z,100015.69
2023-05-10T05:45:44.486Z,100018.75
2023-05-10T05:48:13.506Z,99999.75
2023-05-10T05:50:40.792Z,99993.63
2023-05-10T05:53:08.133Z,100013.94
2023-05-10T05:55:35.689Z,100003.94
2023-05-10T05:58:05.412Z,99993.31
2023-05-10T06:01:01.036Z,100015.09
2023-05-10T06:03:28.554Z,99983.16
2023-05-10T06:05:55.805Z,100006.44
2023-05-10T06:08:23.687Z,100010.56
2023-05-10T06:10:50.966Z,99991.13
2023-05-10T06:13:19.506Z,99987.13
2023-05-10T06:15:47.935Z,99976.69
2023-05-10T06:18:15.539Z,99966.72
2023-05-10T06:21:32.400Z,100010.34
2023-05-10T06:24:02.896Z,99988.44
2023-05-10T06:26:34.066Z,100001.22
2023-05-10T06:29:01.450Z,99970.09
2023-05-10T06:31:29.005Z,99977.94
2023-05-10T06:33:57.718Z,99975.00
2023-05-10T06:39:46.508Z,99975.75
2023-05-10T06:42:15.695Z,99981.72
2023-05-10T06:44:43.562Z,99958.28
2023-05-10T06:47:11.078Z,99964.63
2023-05-10T06:49:38.869Z,99956.00
2023-05-10T06:52:06.802Z,99972.66
2023-05-10T06:54:34.000Z,99956.75
2023-05-10T06:57:02.521Z,99965.97
2023-05-10T06:59:31.578Z,99986.34
2023-05-10T07:01:59.236Z,99971.50
2023-05-10T07:04:26.607Z,99990.16
2023-05-10T07:06:54.383Z,99963.47
2023-05-10T07:09:22.008Z,99977.25
2023-05-10T07:11:49.422Z,99968.72
2023-05-10T07:14:16.794Z,99941.66
2023-05-10T07:16:44.126Z,99952.13
2023-05-10T07:19:11.608Z,99961.84
2023-05-10T07:21:39.235Z,99961.53
2023-05-10T07:24:07.290Z,99958.75
2023-05-10T07:26:34.619Z,99974.03
2023-05-10T07:29:02.372Z,99971.41
2023-05-10T07:31:32.845Z,99969.72
2023-05-10T07:34:00.312Z,99938.44
2023-05-10T07:36:27.716Z,99969.69
2023-05-10T07:38:55.426Z,99956.50
2023-05-10T07:41:23.935Z,99968.81
2023-05-10T07:43:51.401Z,99957.03
2023-05-10T07:46:20.663Z,99954.84
2023-05-10T07:48:48.411Z,99947.50
2023-05-10T07:51:16.103Z,99939.94
2023-05-10T07:53:43.697Z,99939.81
2023-05-10T07:56:30.909Z,99932.91
2023-05-10T07:58:58.572Z,99927.00
2023-05-10T08:01:26.877Z,99931.59
2023-05-10T08:03:54.839Z,99914.09
2023-05-10T08:06:24.772Z,99936.69
2023-05-10T08:12:07.899Z,99957.59
2023-05-10T08:15:01.883Z,99924.13
2023-05-10T08:17:31.693Z,99928.84
2023-05-10T08:20:36.944Z,99941.31
2023-05-10T08:23:04.436Z,99943.19
2023-05-10T08:28:57.628Z,99910.50
2023-05-10T08:31:26.499Z,99935.66
2023-05-10T08:33:56.958Z,99939.09
2023-05-10T08:36:25.664Z,99933.81
2023-05-10T08:38:53.540Z,99930.66
2023-05-10T08:41:27.166Z,99928.28
2023-05-10T08:44:42.823Z,99936.22
2023-05-10T08:47:11.750Z,99914.13
2023-05-10T08:49:43.121Z,99934.31
2023-05-10T08:52:26.408Z,99939.97
2023-05-10T08:54:57.941Z,99922.09
2023-05-10T08:57:54.741Z,99935.78
2023-05-10T09:00:25.023Z,99906.28
2023-05-10T09:03:37.110Z,99935.50
2023-05-10T09:06:09.332Z,99910.00
2023-05-10T09:08:38.549Z,99909.31
2023-05-10T09:11:14.796Z,99891.78
2023-05-10T09:13:43.191Z,99899.41
2023-05-10T09:16:21.117Z,99914.66
2023-05-10T09:18:51.325Z,99892.19
2023-05-10T09:21:18.899Z,99900.81
2023-05-10T09:23:48.653Z,99896.19
2023-05-10T09:26:19.955Z,99897.84
2023-05-10T09:32:16.329Z,99893.38
2023-05-10T09:34:43.873Z,99884.13
2023-05-10T09:37:11.770Z,99879.06
2023-05-10T09:39:42.081Z,99885.63
2023-05-10T09:42:11.455Z,99860.75
2023-05-10T09:44:41.362Z,99875.59
2023-05-10T09:47:08.924Z,99869.03
2023-05-10T09:49:37.472Z,99849.03
2023-05-10T09:52:07.356Z,99859.72
2023-05-10T09:54:35.954Z,99868.63
2023-05-10T09:57:04.974Z,99866.03
2023-05-10T09:59:36.036Z,99856.91
2023-05-10T10:02:04.046Z,99855.56
2023-05-10T10:04:32.382Z,99844.19
2023-05-10T10:07:04.869Z,99852.09
2023-05-10T10:09:34.842Z,99854.41
2023-05-10T10:12:03.485Z,99851.69
2023-05-10T10:20:49.824Z,99833.47
2023-05-10T10:23:17.786Z,99849.38
2023-05-10T10:25:46.470Z,99823.09
2023-05-10T10:28:26.104Z,99846.72
2023-05-10T10:31:01.668Z,99825.31
2023-05-10T10:33:48.084Z,99825.34
2023-05-10T10:36:16.820Z,99844.47
2023-05-10T10:38:50.454Z,99830.69
2023-05-10T10:41:42.347Z,99835.97
2023-05-10T10:44:39.058Z,99833.59
2023-05-10T10:47:16.731Z,99812.41
2023-05-10T10:50:09.687Z,99824.94
2023-05-10T10:52:45.341Z,99803.88
2023-05-10T10:55:23.500Z,99799.88
2023-05-10T10:58:02.039Z,99819.66
2023-05-10T11:00:35.191Z,99808.97
2023-05-10T11:03:12.018Z,99803.31
2023-05-10T11:05:42.419Z,99799.91
2023-05-10T11:08:23.681Z,99817.81
2023-05-10T11:11:01.165Z,99812.50
2023-05-10T11:13:41.823Z,99792.63
2023-05-10T11:16:18.079Z,99807.88
2023-05-10T11:19:05.989Z,99794.97
2023-05-10T11:21:48.886Z,99785.09
2023-05-10T11:24:21.364Z,99779.50
2023-05-10T11:26:52.391Z,99788.00
2023-05-10T11:29:23.044Z,99768.53
2023-05-10T11:31:52.733Z,99782.03
2023-05-10T11:34:35.792Z,99775.75
2023-05-10T11:37:35.579Z,99782.16
2023-05-10T11:40:04.281Z,99767.03
2023-05-10T11:42:31.656Z,99771.84
2023-05-10T11:44:59.177Z,99768.59
2023-05-10T11:47:27.162Z,99754.63
2023-05-10T11:49:57.158Z,99748.97
2023-05-10T11:52:26.984Z,99747.28
2023-05-10T11:54:56.063Z,99746.91
2023-05-10T11:57:46.081Z,99731.25
2023-05-10T12:00:15.094Z,99744.34
2023-05-10T12:02:44.728Z,99728.22
2023-05-10T12:05:12.574Z,99740.34
2023-05-10T12:07:40.134Z,99725.47
2023-05-10T12:10:16.075Z,99739.91
2023-05-10T12:12:45.933Z,99747.69
2023-05-10T12:15:21.714Z,99736.09
2023-05-10T12:17:50.142Z,99711.19
2023-05-10T12:20:30.303Z,99715.91
2023-05-10T12:23:00.866Z,99728.22
2023-05-10T12:25:32.757Z,99732.25
2023-05-10T12:28:02.843Z,99741.06
2023-05-10T12:30:33.475Z,99723.72
2023-05-10T12:33:19.514Z,99690.97
2023-05-10T12:35:55.347Z,99740.63
2023-05-10T12:38:32.838Z,99725.25
2023-05-10T12:41:02.476Z,99727.84
2023-05-10T12:43:36.778Z,99695.50
2023-05-10T12:46:18.860Z,99716.63
2023-05-10T12:49:43.751Z,99704.25
2023-05-10T12:51:51.961Z,99692.47
2023-05-10T13:01:17.080Z,99704.72
2023-05-10T13:04:10.001Z,99710.16
2023-05-10T13:06:39.785Z,99704.75
2023-05-10T13:09:07.516Z,99698.03
2023-05-10T13:11:36.245Z,99706.06
2023-05-10T13:14:05.410Z,99710.69
2023-05-10T13:16:33.445Z,99682.81
2023-05-10T13:19:04.277Z,99698.38
2023-05-10T13:21:33.946Z,99680.44
2023-05-10T13:24:03.115Z,99707.84
2023-05-10T13:26:33.281Z,99692.03
2023-05-10T13:29:01.345Z,99686.63
2023-05-10T13:31:32.326Z,99683.63
2023-05-10T13:34:00.294Z,99676.75
2023-05-10T13:36:27.918Z,99675.94
2023-05-10T13:38:55.329Z,99681.69
2023-05-10T13:41:28.388Z,99678.38
2023-05-10T13:47:18.984Z,99696.75
2023-05-10T13:49:46.488Z,99692.94
2023-05-10T13:52:15.193Z,99688.91
2023-05-10T13:54:46.725Z,99705.56
2023-05-10T13:57:16.581Z,99678.41
2023-05-10T13:59:48.424Z,99673.09
2023-05-10T14:02:16.320Z,99667.13
2023-05-10T14:04:44.445Z,99680.59
2023-05-10T14:07:23.063Z,99657.28
2023-05-10T14:09:50.530Z,99677.59
2023-05-10T14:12:18.363Z,99659.94
2023-05-10T14:14:47.905Z,99670.59
2023-05-10T14:17:15.623Z,99669.63
2023-05-10T14:19:42.928Z,99659.28
2023-05-10T14:22:13.272Z,99671.00
2023-05-10T14:24:44.862Z,99671.78
2023-05-10T14:27:18.200Z,99661.44
2023-05-10T14:30:09.572Z,99651.91
2023-05-10T14:32:45.418Z,99642.75
2023-05-10T14:35:20.186Z,99647.22
2023-05-10T14:37:58.395Z,99675.28
2023-05-10T14:40:35.157Z,99646.59
2023-05-10T14:43:05.767Z,99668.88
2023-05-10T14:45:34.287Z,99668.88
2023-05-10T14:48:16.754Z,99660.66
2023-05-10T14:50:47.359Z,99656.63
2023-05-10T14:53:15.087Z,99657.03
2023-05-10T14:55:42.590Z,99665.97
2023-05-10T14:58:10.048Z,99647.88
2023-05-10T15:00:39.743Z,99667.28
2023-05-10T15:16:26.928Z,99665.13
2023-05-10T15:18:57.201Z,99650.22
2023-05-10T15:21:24.866Z,99670.06
2023-05-10T15:23:52.456Z,99666.50
2023-05-10T15:26:20.217Z,99640.63
2023-05-10T15:28:47.698Z,99652.81
2023-05-10T15:31:15.053Z,99674.84
2023-05-10T15:33:42.707Z,99668.50
2023-05-10T15:36:10.527Z,99658.84
2023-05-10T15:38:52.058Z,99652.66
2023-05-10T15:41:19.840Z,99646.00
2023-05-10T15:43:50.518Z,99647.16
2023-05-10T15:46:18.260Z,99655.53
2023-05-10T15:48:45.918Z,99667.84
2023-05-10T15:51:13.425Z,99650.66
2023-05-10T15:53:46.840Z,99668.84
2023-05-10T15:56:21.064Z,99669.31
2023-05-10T15:58:48.410Z,99631.97
2023-05-10T16:01:15.995Z,99636.59
2023-05-10T16:03:43.537Z,99656.63
2023-05-10T16:06:20.584Z,99643.94
2023-05-10T16:08:48.016Z,99633.78
2023-05-10T16:11:39.028Z,99657.47
2023-05-10T16:14:07.329Z,99629.69
2023-05-10T16:16:36.217Z,99636.84
2023-05-10T16:19:06.329Z,99644.28
2023-05-10T16:21:37.090Z,99626.66
2023-05-10T16:24:05.629Z,99640.28
2023-05-10T16:30:11.770Z,99671.13
2023-05-10T16:32:39.118Z,99657.47
2023-05-10T16:35:07.373Z,99660.00
2023-05-10T16:40:40.286Z,99638.50
2023-05-10T16:43:08.143Z,99669.31
2023-05-10T16:45:44.871Z,99637.16
2023-05-10T16:49:04.630Z,99674.16
2023-05-10T16:51:32.112Z,99640.22
2023-05-10T16:54:02.675Z,99657.19
2023-05-10T16:56:29.978Z,99684.59
2023-05-10T16:58:59.825Z,99651.41
2023-05-10T17:01:27.451Z,99668.34
2023-05-10T17:04:10.256Z,99663.41
2023-05-10T17:06:43.021Z,99668.47
2023-05-10T17:09:17.126Z,99681.97
2023-05-10T17:11:44.713Z,99669.91
2023-05-10T17:14:12.270Z,99672.16
2023-05-10T17:16:43.940Z,99670.50
2023-05-10T17:19:14.341Z,99672.75
2023-05-10T17:21:55.288Z,99676.19
2023-05-10T17:24:22.964Z,99678.34
2023-05-10T17:26:50.433Z,99670.38
2023-05-10T17:29:17.895Z,99691.81
2023-05-10T17:31:50.222Z,99677.03
2023-05-10T17:34:27.612Z,99675.38
2023-05-10T17:36:55.161Z,99696.53
2023-05-10T17:39:22.758Z,99688.84
2023-05-10T17:41:50.083Z,99667.69
2023-05-10T17:44:17.522Z,99679.16
2023-05-10T17:46:44.966Z,99687.31
2023-05-10T17:49:12.276Z,99675.69
2023-05-10T17:51:41.617Z,99692.94
2023-05-10T17:54:09.171Z,99672.97
2023-05-10T17:56:37.453Z,99681.88
2023-05-10T17:59:05.852Z,99687.63
2023-05-10T18:01:33.401Z,99687.00
2023-05-10T18:04:00.664Z,99669.75
2023-05-10T18:06:28.013Z,99674.00
2023-05-10T18:08:57.697Z,99675.97
2023-05-10T18:11:25.246Z,99675.81
2023-05-10T18:31:07.203Z,99683.47
2023-05-10T18:33:35.061Z,99662.47
2023-05-10T18:36:11.575Z,99704.97
2023-05-10T18:38:42.670Z,99666.84
2023-05-10T18:41:12.672Z,99680.19
2023-05-10T18:43:42.827Z,99665.19
2023-05-10T18:46:11.162Z,99703.16
2023-05-10T18:48:39.150Z,99670.06
2023-05-10T18:51:12.723Z,99674.56
2023-05-10T18:53:45.562Z,99673.88
2023-05-10T18:57:01.716Z,99697.28
2023-05-10T18:59:39.389Z,99683.97
2023-05-10T19:02:07.786Z,99683.66
2023-05-10T19:04:40.653Z,99685.31
2023-05-10T19:07:15.955Z,99678.22
2023-05-10T19:09:44.035Z,99675.78
2023-05-10T19:12:19.786Z,99692.69
2023-05-10T19:14:47.594Z,99696.94
2023-05-10T19:17:47.459Z,99679.75
2023-05-10T19:20:15.604Z,99682.03
2023-05-10T19:22:58.450Z,99687.13
2023-05-10T19:25:52.096Z,99671.84
2023-05-10T19:28:27.581Z,99685.28
2023-05-10T19:31:18.867Z,99653.28
2023-05-10T19:34:30.361Z,99698.75
2023-05-10T19:36:58.955Z,99676.53
2023-05-10T19:39:33.143Z,99666.25
2023-05-10T19:42:01.340Z,99679.69
2023-05-10T19:44:30.475Z,99678.16
2023-05-10T19:47:01.485Z,99666.38
2023-05-10T19:49:31.188Z,99696.59
2023-05-10T19:51:58.701Z,99691.31
2023-05-10T19:54:58.969Z,99662.44
2023-05-10T19:57:37.028Z,99662.72
2023-05-10T20:00:07.351Z,99656.44
2023-05-10T20:02:35.190Z,99678.91
2023-05-10T20:05:02.608Z,99676.94
2023-05-10T20:07:33.263Z,99700.22
2023-05-10T20:10:03.767Z,99678.44
2023-05-10T20:12:31.052Z,99687.34
2023-05-10T20:15:00.072Z,99695.75
2023-05-10T20:17:27.615Z,99667.16
2023-05-10T20:19:58.318Z,99693.22
2023-05-10T20:22:28.230Z,99682.59
2023-05-10T20:24:56.736Z,99671.66
2023-05-10T20:27:45.993Z,99658.78
2023-05-10T20:30:18.221Z,99681.88
2023-05-10T20:32:59.438Z,99685.63
2023-05-10T20:35:29.369Z,99695.50
2023-05-10T20:37:56.790Z,99674.22
2023-05-10T20:40:27.050Z,99663.75
2023-05-10T20:42:54.842Z,99681.78
2023-05-10T20:45:22.578Z,99663.00
2023-05-10T20:47:50.670Z,99668.28
2023-05-10T20:50:20.883Z,99659.31
2023-05-10T20:53:00.980Z,99677.66
2023-05-10T20:55:31.687Z,99696.03
2023-05-10T20:57:58.885Z,99694.66
2023-05-10T21:00:26.288Z,99687.97
2023-05-10T21:02:53.624Z,99692.84
2023-05-10T21:05:28.753Z,99678.91
2023-05-10T21:07:55.996Z,99679.75
2023-05-10T21:10:23.213Z,99697.63
2023-05-10T21:12:50.390Z,99688.56
2023-05-10T21:15:19.921Z,99682.16
2023-05-10T21:17:47.213Z,99676.88
2023-05-10T21:20:14.725Z,99699.41
2023-05-10T21:22:44.663Z,99658.50
2023-05-10T21:25:12.005Z,99691.03
2023-05-10T21:27:39.494Z,99681.22
2023-05-10T21:30:07.419Z,99695.44
2023-05-10T21:32:36.060Z,99698.16
2023-05-10T21:35:03.492Z,99694.78
2023-05-10T21:37:30.810Z,99689.13
2023-05-10T21:39:58.089Z,99683.44
2023-05-10T21:42:25.340Z,99683.09
2023-05-10T21:44:53.065Z,99696.00
2023-05-10T21:47:20.292Z,99685.91
2023-05-10T21:49:48.053Z,99690.56
2023-05-10T21:52:15.343Z,99703.47
2023-05-10T21:54:42.778Z,99698.03
2023-05-10T21:57:10.074Z,99696.50
2023-05-10T21:59:37.416Z,99666.56
2023-05-10T22:02:04.521Z,99663.97
2023-05-10T22:04:31.810Z,99689.72
2023-05-10T22:06:59.004Z,99687.78
2023-05-10T22:09:26.175Z,99690.81
2023-05-10T22:11:56.259Z,99678.34
2023-05-10T22:14:23.537Z,99680.03
2023-05-10T22:16:51.205Z,99696.47
2023-05-10T22:19:18.453Z,99702.47
2023-05-10T22:21:45.758Z,99694.34
2023-05-10T22:24:13.406Z,99692.66
2023-05-10T22:26:40.972Z,99682.41
2023-05-10T22:29:08.208Z,99693.75
2023-05-10T22:31:36.423Z,99678.91
2023-05-10T22:34:11.878Z,99702.94
2023-05-10T22:36:39.014Z,99673.28
2023-05-10T22:39:06.497Z,99695.38
2023-05-10T22:41:34.773Z,99684.91
2023-05-10T22:44:04.107Z,99672.56
2023-05-10T22:46:39.111Z,99701.50
2023-05-10T22:49:07.157Z,99678.44
2023-05-10T22:51:37.912Z,99700.19
2023-05-10T22:54:05.213Z,99693.38
2023-05-10T22:56:32.545Z,99684.34
2023-05-10T22:58:59.945Z,99687.81
2023-05-10T23:01:27.343Z,99687.22
2023-05-10T23:03:56.913Z,99688.44
2023-05-10T23:06:24.144Z,99669.28
2023-05-10T23:08:51.415Z,99690.47
2023-05-10T23:11:18.646Z,99679.00
2023-05-10T23:13:45.897Z,99695.16
2023-05-10T23:16:13.532Z,99677.72
2023-05-10T23:18:41.416Z,99666.81
2023-05-10T23:21:08.706Z,99681.22
2023-05-10T23:23:36.359Z,99681.63
2023-05-10T23:26:05.459Z,99689.75
2023-05-10T23:28:32.965Z,99682.31
2023-05-10T23:31:00.287Z,99694.75
2023-05-10T23:33:28.299Z,99696.81
2023-05-10T23:35:55.672Z,99666.09
2023-05-10T23:38:22.904Z,99700.41
2023-05-10T23:40:51.053Z,99685.34
2023-05-10T23:43:20.050Z,99689.69
2023-05-10T23:45:57.477Z,99706.38
2023-05-10T23:48:25.324Z,99683.06
2023-05-10T23:50:52.697Z,99681.09
2023-05-10T23:53:20.027Z,99660.25
2023-05-10T23:55:47.441Z,99672.13
2023-05-10T23:58:14.796Z,99686.41
